Latest Coastal Weather Observations for Cape Borda

IDS60701

Issued at 2:31 am CDT Thursday 29 January 2015 (issued every 10 minutes, with the page automatically refreshed every 10 minutes)

About coastal observations | Map of coastal stations | Coastal observations for SA | Marine services | Other Formats
Station Details ID: 022823 Name: CAPE BORDA Lat: -35.75 Lon: 136.60 Height: 158.0 m
Data from the previous 72 hours. | See also: Recent months at Cape Borda
Date/Time
CDT
Temp

°C
Wind Pressure Rain
since 9am
mm
Weather Cloud Vis
km
Sea
Height
m
Swell
Dir
 
Speed
knots
Gust
knots
hPa Trend Height
m
Period
s
Dir
29/02:30am 15.6 SE 19 27 1017.0 - 0.0 - - - - - - -
29/02:00am 15.4 SE 17 26 1017.1 - 0.0 - - - - - - -
29/01:30am 15.5 SE 19 26 1017.3 - 0.0 - - - - - - -
29/01:00am 15.4 SE 19 27 1017.4 - 0.0 - - - - - - -
29/12:30am 15.2 SE 21 32 1017.5 - 0.0 - - - - - - -
29/12:03am 15.2 SE 19 30 1017.5 - 0.0 - - - - - - -
29/12:00am 15.1 SE 19 27 1017.3 - 0.0 - - - - - - -
 
Date/Time
CDT
Temp

°C
Wind Pressure Rain
since 9am
mm
Weather Cloud Vis
km
Sea
Height
m
Swell
Dir
 
Speed
knots
Gust
knots
hPa Trend Height
m
Period
s
Dir
28/11:30pm 15.1 SE 19 25 1017.7 - 0.0 - - - - - - -
28/11:00pm 14.9 SE 20 26 1017.7 - 0.0 - - - - - - -
28/10:50pm 14.9 SSE 19 29 1017.9 - 0.0 - - - - - - -
28/10:30pm 15.1 SE 20 28 1018.0 - 0.0 - - - - - - -
28/10:00pm 15.1 SE 21 28 1017.9 - 0.0 - - - - - - -
28/09:30pm 15.1 SE 16 29 1018.2 - 0.0 - - - - - - -
28/09:11pm 15.1 SE 15 25 1018.2 - 0.0 - - - - - - -
28/09:00pm 15.2 SSE 18 25 1017.7 - 0.0 - - - - - - -
28/08:30pm 15.7 SE 16 24 1018.4 - 0.0 - - - - - - -
28/08:00pm 16.0 SSE 15 23 1018.4 - 0.0 - - - - - - -
28/07:30pm 16.3 SE 14 21 1018.3 - 0.0 - - - - - - -
28/07:00pm 17.6 SE 15 25 1018.2 - 0.0 - - - - - - -
28/06:30pm 18.2 SE 18 24 1018.2 - 0.0 - - - - - - -
28/06:00pm 19.1 SSE 16 24 1017.9 - 0.0 - - - - - - -
28/05:30pm 19.4 SSE 18 28 1018.2 - 0.0 - - - - - - -
28/05:19pm 19.7 SSE 17 28 1018.3 - 0.0 - - - - - - -
28/05:00pm 20.0 SE 17 25 1018.5 - 0.0 - - - - - - -
28/04:30pm 20.3 SSE 18 28 1018.3 - 0.0 - - - - - - -
28/04:08pm 20.0 SSE 16 26 1018.5 - 0.0 - - - - - - -
28/04:00pm 20.2 SSE 19 26 1018.5 - 0.0 - - - - - - -
28/03:30pm 20.0 SE 15 25 1018.8 - 0.0 - - - - - - -
28/03:28pm 20.2 SE 15 25 1018.8 - 0.0 - - - - - - -
28/03:00pm 19.2 SE 15 24 1018.6 F 0.0 Fine Mostly cloudy 18 1 4.0 6 SW
28/02:37pm 20.6 SSE 16 26 1019.2 - 0.0 - - - - - - -
28/02:30pm 20.5 SSE 14 21 1019.3 - 0.0 - - - - - - -
28/02:00pm 19.7 SE 15 23 1019.8 - 0.0 - - - - - - -
28/01:41pm 21.3 SE 15 25 1019.8 - 0.0 - - - - - - -
28/01:30pm 20.8 SE 15 23 1019.7 - 0.0 - - - - - - -
28/01:00pm 19.4 SE 15 26 1020.0 - 0.0 - - - - - - -
28/12:55pm 19.2 SE 16 26 1020.1 - 0.0 - - - - - - -
28/12:30pm 19.2 SE 14 22 1020.0 - 0.0 - - - - - - -
28/12:00pm 17.8 SE 15 21 1019.8 - 0.0 - - - - - - -
28/11:30am 18.1 SE 14 23 1020.1 - 0.0 - - - - - - -
28/11:00am 17.5 SE 14 19 1020.4 - 0.0 - - - - - - -
28/10:30am 17.5 SE 14 21 1020.3 - 0.0 - - - - - - -
28/10:00am 16.5 SE 15 21 1020.3 - 0.0 - - - - - - -
28/09:30am 16.5 SE 14 20 1020.2 - 0.0 - - - - - - -
28/09:00am 16.2 SE 10 17 1019.6 R 0.0 Fine Cloudy 22 <0.1 3.4 6 SW
28/08:30am 15.6 SE 9 16 1019.7 - 0.0 - - - - - - -
28/08:00am 15.1 SE 8 13 1019.5 - 0.0 - - - - - - -
28/07:30am 14.4 ESE 8 13 1019.3 - 0.0 - - - - - - -
28/07:00am 13.3 ESE 5 7 1018.9 - 0.0 - - - - - - -
28/06:30am 13.0 ESE 7 10 1018.7 - 0.0 - - - - - - -
28/06:00am 13.0 ESE 9 19 1018.0 - 0.0 - - - - - - -
28/05:30am 11.4 SE 7 8 1018.0 - 0.0 - - - - - - -
28/05:00am 11.9 SE 7 9 1017.8 - 0.0 - - - - - - -
28/04:30am 12.3 SE 8 10 1017.8 - 0.0 - - - - - - -
28/04:00am 12.3 SE 7 11 1017.7 - 0.0 - - - - - - -
28/03:30am 13.0 SE 9 14 1017.9 - 0.0 - - - - - - -
28/03:00am 13.7 SE 10 15 1018.0 - 0.0 - - - - - - -
28/02:30am 13.9 SE 8 13 1018.6 - 0.0 - - - - - - -
28/02:00am 14.2 SE 7 12 1019.0 - 0.0 - - - - - - -
28/01:30am 14.2 SE 9 15 1019.2 - 0.0 - - - - - - -
28/01:00am 14.1 SSE 8 15 1019.5 - 0.0 - - - - - - -
28/12:30am 14.0 SSE 10 15 1019.6 - 0.0 - - - - - - -
28/12:00am 13.6 SSE 10 14 1019.4 - 0.0 - - - - - - -
 
Date/Time
CDT
Temp

°C
Wind Pressure Rain
since 9am
mm
Weather Cloud Vis
km
Sea
Height
m
Swell
Dir
 
Speed
knots
Gust
knots
hPa Trend Height
m
Period
s
Dir
27/11:30pm 14.2 SSE 10 14 1020.0 - 0.0 - - - - - - -
27/11:00pm 13.5 SSE 8 12 1020.0 - 0.0 - - - - - - -
27/10:30pm 13.9 S 7 9 1020.3 - 0.0 - - - - - - -
27/10:00pm 13.2 SSE 6 9 1020.2 - 0.0 - - - - - - -
27/09:30pm 13.8 SSE 9 13 1020.0 - 0.0 - - - - - - -
27/09:00pm 13.5 SE 11 15 1019.5 - 0.0 - - - - - - -
27/08:30pm 14.7 SSE 12 17 1019.4 - 0.0 - - - - - - -
27/08:00pm 14.6 SSE 11 15 1019.4 - 0.0 - - - - - - -
27/07:30pm 14.9 S 15 22 1019.2 - 0.0 - - - - - - -
27/07:00pm 16.7 SSE 14 22 1018.8 - 0.0 - - - - - - -
27/06:30pm 16.3 SSE 14 20 1018.7 - 0.0 - - - - - - -
27/06:00pm 16.8 S 14 19 1018.3 - 0.0 - - - - - - -
27/05:30pm 16.8 SSE 13 22 1018.8 - 0.0 - - - - - - -
27/05:00pm 17.0 SSE 12 19 1018.6 - 0.0 - - - - - - -
27/04:30pm 17.1 SSE 15 21 1018.5 - 0.0 - - - - - - -
27/04:00pm 18.4 SE 15 23 1018.5 - 0.0 - - - - - - -
27/03:30pm 17.9 S 16 23 1018.4 - 0.0 - - - - - - -
27/03:00pm 18.5 SSE 13 20 1018.4 S 0.0 Fine Mostly cloudy 20 1 3.7 7 SW
27/02:30pm 18.2 SSE 14 21 1018.6 - 0.0 - - - - - - -
27/02:00pm 19.1 S 13 18 1018.8 - 0.0 - - - - - - -
27/01:30pm 19.1 S 12 18 1019.0 - 0.0 - - - - - - -
27/01:00pm 18.2 SSE 11 17 1019.2 - 0.0 - - - - - - -
27/12:30pm 18.1 SSE 10 17 1019.4 - 0.0 - - - - - - -
27/12:00pm 17.4 SSE 11 17 1019.3 - 0.0 - - - - - - -
27/11:30am 17.5 S 12 17 1019.7 - 0.0 - - - - - - -
27/11:00am 17.5 S 10 15 1019.7 - 0.0 - - - - - - -
27/10:30am 17.6 S 11 14 1019.7 - 0.0 - - - - - - -
27/10:00am 17.9 SE 11 16 1019.7 - 0.0 - - - - - - -
27/09:30am 17.2 SE 9 14 1019.9 - 0.0 - - - - - - -
27/09:00am 16.0 SSE 10 13 1019.7 R 0.0 Fine Mostly cloudy 20 <0.1 3.7 7 S
27/08:30am 15.3 SSE 8 12 1019.7 - 0.0 - - - - - - -
27/08:00am 14.4 S 6 9 1019.6 - 0.0 - - - - - - -
27/07:30am 13.7 S 7 8 1019.3 - 0.0 - - - - - - -
27/07:00am 13.1 S 6 7 1019.2 - 0.0 - - - - - - -
27/06:30am 12.9 S 6 6 1018.9 - 0.0 - - - - - - -
27/06:00am 13.0 S 5 7 1018.2 - 0.0 - - - - - - -
27/05:30am 13.0 S 6 9 1018.3 - 0.0 - - - - - - -
27/05:00am 13.2 SSE 6 9 1018.3 - 0.0 - - - - - - -
27/04:30am 13.4 SSE 7 9 1018.2 - 0.0 - - - - - - -
27/04:00am 13.6 SSE 6 8 1018.3 - 0.0 - - - - - - -
27/03:30am 13.3 SSE 7 11 1018.4 - 0.0 - - - - - - -
27/03:00am 13.4 SSE 5 7 1018.2 - 0.0 - - - - - - -
27/02:30am 13.2 SSE 4 5 1018.8 - 0.0 - - - - - - -
27/02:00am 13.4 SSE 5 6 1019.1 - 0.0 - - - - - - -
27/01:30am 13.5 SSE 7 10 1019.3 - 0.0 - - - - - - -
27/01:00am 13.7 SSE 8 12 1019.4 - 0.0 - - - - - - -
27/12:30am 13.4 SSE 6 8 1019.5 - 0.0 - - - - - - -
27/12:00am 13.3 SSE 8 10 1019.3 - 0.0 - - - - - - -
 
Date/Time
CDT
Temp

°C
Wind Pressure Rain
since 9am
mm
Weather Cloud Vis
km
Sea
Height
m
Swell
Dir
 
Speed
knots
Gust
knots
hPa Trend Height
m
Period
s
Dir
26/11:30pm 12.6 SSE 8 12 1019.6 - 0.0 - - - - - - -
26/11:00pm 12.7 SSE 8 11 1019.8 - 0.0 - - - - - - -
26/10:30pm 12.8 S 7 9 1019.8 - 0.0 - - - - - - -
26/10:00pm 11.7 S 7 7 1019.7 - 0.0 - - - - - - -
26/09:30pm 12.1 S 7 8 1019.6 - 0.0 - - - - - - -
26/09:00pm 12.9 S 8 10 1019.0 - 0.0 - - - - - - -
26/08:30pm 14.3 S 12 18 1019.1 - 0.0 - - - - - - -
26/08:00pm 16.4 S 12 17 1019.0 - 0.0 - - - - - - -
26/07:30pm 17.0 SSE 12 16 1018.9 - 0.0 - - - - - - -
26/07:00pm 18.5 SSE 9 14 1018.8 - 0.0 - - - - - - -
26/06:30pm 17.5 SSE 10 14 1018.5 - 0.0 - - - - - - -
26/06:00pm 17.6 S 9 14 1018.2 - 0.0 - - - - - - -
26/05:30pm 19.7 SSW 13 18 1018.3 - 0.0 - - - - - - -
26/05:00pm 18.7 SW 16 21 1018.2 - 0.0 - - - - - - -
26/04:30pm 18.9 SSW 14 20 1018.0 - 0.0 - - - - - - -
26/04:00pm 19.1 SSW 13 19 1018.1 - 0.0 - - - - - - -
26/03:30pm 19.0 SSW 11 17 1018.3 - 0.0 - - - - - - -
26/03:00pm 16.7 SW 13 19 1018.3 R 0.0 Fine Mostly cloudy 20 <0.5 5.0 8 SW
26/02:30pm 17.7 SSW 12 18 1018.6 - 0.0 - - - - - - -
26/02:00pm 17.6 SSW 11 16 1018.8 - 0.0 - - - - - - -
26/01:30pm 17.7 S 9 15 1019.0 - 0.0 - - - - - - -
26/01:00pm 17.6 S 9 12 1019.1 - 0.0 - - - - - - -
26/12:30pm 17.4 S 9 15 1019.1 - 0.0 - - - - - - -
26/12:00pm 16.4 SSE 11 14 1018.8 - 0.0 - - - - - - -
26/11:30am 16.4 SSE 9 13 1019.1 - 0.0 - - - - - - -
26/11:00am 15.9 S 8 13 1019.1 - 0.0 - - - - - - -
26/10:30am 15.4 SSE 7 12 1019.4 - 0.0 - - - - - - -
26/10:00am 15.9 SSE 9 13 1019.2 - 0.0 - - - - - - -
26/09:30am 14.8 SE 10 14 1019.4 - 0.0 - - - - - - -
26/09:00am 14.1 SSE 7 10 1019.1 R 0.0 Fine Mostly cloudy 20 <0.5 5.9 8 SW
26/08:30am 13.5 SSE 9 12 1019.2 - 0.0 - - - - - - -
26/08:00am 13.3 SSE 7 11 1018.8 - 0.0 - - - - - - -
26/07:30am 11.9 SSE 8 8 1018.6 - 0.0 - - - - - - -
26/07:00am 12.3 S 7 8 1018.4 - 0.0 - - - - - - -
26/06:30am 12.0 SSE 8 10 1018.1 - 0.0 - - - - - - -
26/06:00am 11.6 SSE 8 9 1017.5 - 0.0 - - - - - - -
26/05:30am 12.4 SSE 8 12 1017.5 - 0.0 - - - - - - -
26/05:00am 12.9 SSE 7 9 1017.3 - 0.0 - - - - - - -
26/04:30am 13.0 S 6 7 1017.0 - 0.0 - - - - - - -
26/04:00am 13.0 S 5 6 1016.9 - 0.0 - - - - - - -
26/03:30am 13.1 SSE 5 6 1016.8 - 0.0 - - - - - - -
26/03:00am 13.1 S 6 8 1016.4 - 0.0 - - - - - - -

Other Formats:

Comma delimited format used in spreadsheet applications
http://www.bom.gov.au/fwo/IDS60701/IDS60701.95805.axf

JavaScript Object Notation format (JSON) in row-major order
http://www.bom.gov.au/fwo/IDS60701/IDS60701.95805.json